Time;durP1;ratioP1;P1;durP2;ratioP2;P2;SDS_P1;SDS_P2;PMS_P1;PMS_P2;Temp;Humidity;BMP_temperature;BMP_pressure;BME280_temperature;BME280_humidity;BME280_pressure;Samples;Min_cycle;Max_cycle;Signal;HPM_P1;HPM_P2
2023/06/12 00:00:16;;;;;;;1.42;1.00;;;;;;;30.95;31.08;100520.41;5016046;28;20057;-75
2023/06/12 00:02:45;;;;;;;3.13;1.08;;;;;;;30.96;31.21;100521.28;5011658;28;20053;-74
2023/06/12 00:05:20;;;;;;;1.48;1.00;;;;;;;30.85;31.94;100533.44;5013177;28;20050;-72
2023/06/12 00:07:51;;;;;;;1.55;1.00;;;;;;;30.75;31.86;100528.72;5011308;28;20180;-72
2023/06/12 00:10:21;;;;;;;;;;;;;;;30.69;31.66;100535.25;5018064;28;20053;-71
2023/06/12 00:12:49;;;;;;;1.13;0.90;;;;;;;30.63;32.41;100536.47;5019678;28;19929;-74
2023/06/12 00:15:18;;;;;;;4.00;1.30;;;;;;;30.61;32.75;100524.16;5021390;28;20495;-73
2023/06/12 00:17:48;;;;;;;1.90;1.30;;;;;;;30.61;32.68;100532.19;5022549;28;20049;-73
2023/06/12 00:20:16;;;;;;;1.27;0.95;;;;;;;30.56;31.46;100531.56;5013608;28;20149;-72
2023/06/12 00:22:45;;;;;;;2.70;1.00;;;;;;;30.44;31.92;100535.81;5020045;28;20057;-74
2023/06/12 00:25:13;;;;;;;2.45;1.20;;;;;;;30.31;32.27;100534.81;4998746;28;20775;-74
2023/06/12 00:27:44;;;;;;;1.35;1.08;;;;;;;30.14;32.21;100538.38;5001447;28;20050;-74
2023/06/12 00:30:14;;;;;;;1.20;1.08;;;;;;;30.03;32.21;100528.28;5013036;28;20400;-74
2023/06/12 00:32:43;;;;;;;1.25;1.00;;;;;;;29.94;33.89;100535.00;4989076;28;20074;-74
2023/06/12 00:35:11;;;;;;;1.13;0.80;;;;;;;29.88;32.74;100537.16;4998435;28;20050;-72
2023/06/12 00:37:42;;;;;;;2.00;0.90;;;;;;;29.72;33.03;100532.63;5000429;28;20157;-72
2023/06/12 00:40:11;;;;;;;1.48;0.95;;;;;;;29.56;34.27;100537.03;5003004;28;20157;-72
2023/06/12 00:42:46;;;;;;;2.80;1.20;;;;;;;29.43;34.25;100531.47;4995142;28;20064;-73
2023/06/12 00:45:16;;;;;;;2.22;1.00;;;;;;;29.40;34.04;100532.50;5002507;28;20086;-72
2023/06/12 00:47:47;;;;;;;1.60;1.27;;;;;;;29.40;34.95;100537.84;4994512;28;20054;-75
2023/06/12 00:50:16;;;;;;;1.17;1.05;;;;;;;29.38;36.50;100531.72;4983861;28;20058;-73
2023/06/12 00:52:48;;;;;;;1.13;1.00;;;;;;;29.37;35.37;100527.34;4999199;28;20491;-72
2023/06/12 00:55:17;;;;;;;1.40;1.00;;;;;;;29.31;33.83;100513.47;5002218;28;20479;-73
2023/06/12 00:57:49;;;;;;;2.05;1.00;;;;;;;29.35;33.65;100518.56;5004665;28;20057;-73
2023/06/12 01:00:19;;;;;;;1.27;1.00;;;;;;;29.26;33.92;100513.72;4999729;28;20137;-72
2023/06/12 01:02:51;;;;;;;1.08;0.90;;;;;;;29.09;34.27;100511.06;5005304;28;20117;-73
2023/06/12 01:05:28;;;;;;;1.73;0.90;;;;;;;29.03;34.22;100518.41;5000623;28;20124;-73
2023/06/12 01:08:07;;;;;;;1.50;1.10;;;;;;;29.01;35.02;100519.41;5004687;28;20046;-72
2023/06/12 01:10:42;;;;;;;1.38;0.90;;;;;;;28.98;35.08;100509.78;4989570;28;20137;-73
2023/06/12 01:13:13;;;;;;;1.20;0.98;;;;;;;28.96;35.11;100505.50;4993428;28;20189;-72
2023/06/12 01:15:41;;;;;;;1.58;0.90;;;;;;;28.98;34.74;100517.78;5000682;28;20085;-73
2023/06/12 01:18:10;;;;;;;3.97;1.00;;;;;;;28.98;34.34;100509.78;4998260;28;20042;-72
2023/06/12 01:20:40;;;;;;;0.85;0.70;;;;;;;28.85;33.78;100514.00;5005560;28;20081;-74
2023/06/12 01:23:15;;;;;;;0.60;0.60;;;;;;;28.79;34.27;100519.63;5002645;28;20091;-73
2023/06/12 01:26:06;;;;;;;2.40;0.70;;;;;;;28.75;33.64;100510.09;5013797;28;20073;-74
2023/06/12 01:29:10;;;;;;;2.50;0.90;;;;;;;28.65;33.85;100516.81;5017332;28;20096;-74
2023/06/12 01:31:46;;;;;;;2.38;0.80;;;;;;;28.54;34.05;100515.56;5022141;28;20054;-73
2023/06/12 01:34:24;;;;;;;4.45;0.73;;;;;;;28.50;34.69;100524.63;5024762;28;20626;-72
2023/06/12 01:37:01;;;;;;;1.48;1.13;;;;;;;28.42;34.51;100519.63;5021131;28;20491;-73
2023/06/12 01:39:31;;;;;;;1.55;0.85;;;;;;;28.38;35.18;100519.84;5001693;28;20068;-75
2023/06/12 01:42:00;;;;;;;1.80;0.68;;;;;;;28.24;34.60;100517.84;5017323;28;20041;-74
2023/06/12 01:44:29;;;;;;;1.77;0.90;;;;;;;28.14;35.05;100522.75;5011225;28;20053;-72
2023/06/12 01:46:57;;;;;;;2.08;0.93;;;;;;;28.05;35.48;100530.31;5019289;28;20563;-74
2023/06/12 01:49:27;;;;;;;2.72;0.93;;;;;;;27.99;35.86;100531.44;5018268;28;20490;-73
2023/06/12 01:51:56;;;;;;;0.90;0.70;;;;;;;27.93;35.71;100529.09;5021139;28;20111;-74
2023/06/12 01:54:27;;;;;;;1.13;0.90;;;;;;;27.85;35.69;100536.53;5016054;28;20375;-73
2023/06/12 01:56:57;;;;;;;1.63;1.30;;;;;;;27.81;36.00;100542.91;5021040;28;20613;-73
2023/06/12 01:59:26;;;;;;;1.75;1.00;;;;;;;27.74;35.80;100535.22;5013799;28;21065;-72
2023/06/12 02:01:54;;;;;;;1.92;0.80;;;;;;;27.67;36.37;100543.53;5018709;28;20045;-71
2023/06/12 02:04:23;;;;;;;1.75;0.63;;;;;;;27.60;36.18;100544.72;5009658;28;20050;-71
2023/06/12 02:06:54;;;;;;;1.83;0.73;;;;;;;27.55;36.78;100540.47;5013459;28;20049;-71
2023/06/12 02:09:25;;;;;;;0.80;0.70;;;;;;;27.49;36.74;100547.88;5021902;28;20636;-70
2023/06/12 02:11:54;;;;;;;1.30;1.10;;;;;;;27.42;37.08;100547.28;5014805;28;20622;-70
2023/06/12 02:14:25;;;;;;;1.33;0.95;;;;;;;27.37;37.01;100551.91;5015055;28;20949;-70
2023/06/12 02:16:56;;;;;;;1.00;0.70;;;;;;;27.31;37.79;100550.41;5005720;28;20081;-70
2023/06/12 02:19:25;;;;;;;1.48;0.65;;;;;;;27.28;37.82;100549.66;5018210;28;20718;-70
2023/06/12 02:21:58;;;;;;;0.85;0.70;;;;;;;27.22;38.06;100552.59;5021612;28;20479;-69
2023/06/12 02:24:28;;;;;;;0.80;0.80;;;;;;;27.19;37.38;100552.69;5025265;28;20653;-70
2023/06/12 02:26:56;;;;;;;0.85;0.70;;;;;;;27.16;38.29;100548.38;5017645;28;20136;-71
2023/06/12 02:29:25;;;;;;;0.70;0.70;;;;;;;27.14;38.25;100551.13;5009732;28;20779;-69
2023/06/12 02:31:54;;;;;;;0.95;0.82;;;;;;;27.08;39.23;100545.19;5024858;28;20064;-70
2023/06/12 02:34:23;;;;;;;1.05;0.65;;;;;;;27.13;40.90;100561.78;5021762;28;20499;-71
2023/06/12 02:36:51;;;;;;;1.63;0.75;;;;;;;27.11;39.95;100574.28;5015068;28;20053;-71
2023/06/12 02:39:22;;;;;;;2.83;1.08;;;;;;;27.07;39.75;100576.19;5021587;28;20045;-72
2023/06/12 02:41:50;;;;;;;2.28;1.00;;;;;;;27.00;39.75;100589.78;5017356;28;20610;-72
2023/06/12 02:44:19;;;;;;;1.42;0.70;;;;;;;26.88;39.49;100589.34;5019618;28;20060;-71
2023/06/12 02:46:55;;;;;;;1.35;1.10;;;;;;;26.78;40.34;100585.38;5019498;28;20045;-72
2023/06/12 02:49:25;;;;;;;1.67;1.05;;;;;;;26.74;41.02;100595.22;5021447;28;20054;-70
2023/06/12 02:51:54;;;;;;;2.90;0.90;;;;;;;26.68;42.44;100594.59;5021436;28;20051;-71
2023/06/12 02:54:26;;;;;;;3.35;0.82;;;;;;;26.62;42.36;100602.81;5017320;28;20320;-71
2023/06/12 02:56:55;;;;;;;2.00;0.80;;;;;;;26.56;41.44;100605.72;5017253;28;20055;-71
2023/06/12 02:59:25;;;;;;;1.08;0.80;;;;;;;26.51;41.11;100609.38;5017714;28;20110;-70
2023/06/12 03:01:53;;;;;;;1.00;0.90;;;;;;;26.46;40.85;100606.06;5016076;28;20055;-69
2023/06/12 03:04:23;;;;;;;1.30;0.93;;;;;;;26.40;41.59;100603.63;5019123;28;20045;-69
2023/06/12 03:06:53;;;;;;;1.90;0.90;;;;;;;26.35;41.34;100610.03;5023423;28;20072;-69
2023/06/12 03:09:22;;;;;;;2.20;1.10;;;;;;;26.21;41.02;100605.25;5019625;28;20503;-70
2023/06/12 03:11:53;;;;;;;1.58;1.13;;;;;;;26.02;41.43;100616.56;5021026;28;20513;-70
2023/06/12 03:14:24;;;;;;;1.40;0.73;;;;;;;25.93;42.06;100611.59;5021432;28;20064;-71
2023/06/12 03:16:53;;;;;;;2.65;1.00;;;;;;;25.84;41.79;100606.59;5025497;28;20302;-71
2023/06/12 03:19:21;;;;;;;1.55;0.80;;;;;;;25.74;41.95;100600.75;5020342;28;20072;-71
2023/06/12 03:21:50;;;;;;;1.67;0.88;;;;;;;25.67;41.91;100602.75;5024310;28;20115;-70
2023/06/12 03:24:21;;;;;;;4.68;1.00;;;;;;;25.58;41.91;100605.72;5022778;28;20700;-71
2023/06/12 03:26:49;;;;;;;1.00;0.77;;;;;;;25.49;42.52;100595.44;5015074;28;20110;-72
2023/06/12 03:29:20;;;;;;;1.30;1.00;;;;;;;25.41;42.89;100601.03;5021738;28;20087;-71
2023/06/12 03:31:49;;;;;;;1.25;0.80;;;;;;;25.35;42.99;100600.38;5021879;28;20120;-72
2023/06/12 03:34:18;;;;;;;1.30;0.93;;;;;;;25.28;43.54;100602.34;5022419;28;20423;-71
2023/06/12 03:36:47;;;;;;;1.15;0.90;;;;;;;25.17;43.75;100602.66;5021426;28;20049;-71
2023/06/12 03:39:15;;;;;;;1.30;0.90;;;;;;;25.12;43.87;100603.75;5016770;28;20058;-71
2023/06/12 03:41:55;;;;;;;1.35;0.80;;;;;;;25.04;43.52;100606.66;5021394;28;20488;-71
2023/06/12 03:44:26;;;;;;;4.18;1.10;;;;;;;24.94;43.60;100602.56;5016720;28;20052;-71
2023/06/12 03:46:55;;;;;;;1.95;1.08;;;;;;;24.85;44.15;100601.09;5017766;28;20057;-70
2023/06/12 03:49:24;;;;;;;3.75;1.23;;;;;;;24.78;44.11;100602.19;5015649;28;20515;-70
2023/06/12 03:51:53;;;;;;;3.00;1.38;;;;;;;24.70;44.75;100599.81;5022616;28;20053;-70
2023/06/12 03:54:24;;;;;;;1.67;0.95;;;;;;;24.63;44.06;100608.84;5012102;28;20112;-70
2023/06/12 03:56:53;;;;;;;2.55;1.08;;;;;;;24.57;44.28;100616.97;5021871;28;20535;-71
2023/06/12 03:59:22;;;;;;;3.90;1.10;;;;;;;24.53;45.13;100618.81;5017033;28;20415;-71
2023/06/12 04:01:52;;;;;;;1.80;1.20;;;;;;;24.45;44.70;100615.53;5022034;28;20440;-73
2023/06/12 04:04:21;;;;;;;0.98;0.73;;;;;;;24.39;45.13;100611.28;5025364;28;20057;-72
2023/06/12 04:06:50;;;;;;;1.30;0.80;;;;;;;24.33;46.12;100618.56;5024314;28;20057;-71
2023/06/12 04:09:20;;;;;;;2.72;1.20;;;;;;;24.25;46.45;100624.06;5024128;28;20046;-72
2023/06/12 04:11:48;;;;;;;1.17;0.80;;;;;;;24.16;46.77;100629.59;5020705;28;20142;-72
2023/06/12 04:14:17;;;;;;;1.83;1.05;;;;;;;24.07;48.03;100635.16;5017603;28;20117;-73
2023/06/12 04:16:46;;;;;;;2.15;1.10;;;;;;;23.96;48.00;100633.69;5022806;28;20116;-73
2023/06/12 04:19:16;;;;;;;4.80;1.50;;;;;;;23.88;49.12;100630.38;5023627;28;20105;-73
2023/06/12 04:21:45;;;;;;;2.38;1.08;;;;;;;23.78;48.09;100634.22;5021577;28;20057;-72
2023/06/12 04:24:15;;;;;;;2.53;1.00;;;;;;;23.68;49.03;100632.66;5019287;28;20514;-72
2023/06/12 04:26:46;;;;;;;1.52;1.20;;;;;;;23.55;47.58;100633.00;5018976;28;20128;-72
2023/06/12 04:29:21;;;;;;;1.50;1.10;;;;;;;23.51;47.91;100636.63;5015814;28;20041;-71
2023/06/12 04:31:54;;;;;;;2.08;1.00;;;;;;;23.45;48.01;100635.91;5020154;28;20053;-71
2023/06/12 04:34:25;;;;;;;1.45;0.90;;;;;;;23.39;48.46;100639.59;5014791;28;20053;-72
2023/06/12 04:36:56;;;;;;;3.25;0.90;;;;;;;23.32;49.12;100648.53;5021775;28;20671;-72
2023/06/12 04:39:25;;;;;;;1.30;1.00;;;;;;;23.29;48.13;100643.34;5014661;28;20491;-72
2023/06/12 04:41:53;;;;;;;2.22;0.85;;;;;;;23.25;47.83;100649.59;5020877;28;20049;-71
2023/06/12 04:44:22;;;;;;;1.10;0.90;;;;;;;23.19;48.63;100651.50;5022312;28;20054;-71
2023/06/12 04:46:52;;;;;;;1.00;0.70;;;;;;;23.12;48.51;100649.91;5011250;28;20053;-70
2023/06/12 04:49:22;;;;;;;1.13;0.90;;;;;;;23.07;49.12;100651.81;5022323;28;20567;-71
2023/06/12 04:51:52;;;;;;;1.23;0.80;;;;;;;23.02;48.47;100658.09;5025237;28;20077;-71
2023/06/12 04:54:21;;;;;;;1.25;0.90;;;;;;;22.92;49.59;100658.25;5015748;28;20144;-72
2023/06/12 04:56:50;;;;;;;3.78;1.00;;;;;;;22.76;50.74;100657.75;5015507;28;20050;-72
2023/06/12 04:59:18;;;;;;;2.08;1.00;;;;;;;22.64;50.71;100668.56;5019186;28;20050;-71
2023/06/12 05:01:49;;;;;;;1.55;0.90;;;;;;;22.57;50.66;100664.34;5018271;28;20049;-71
2023/06/12 05:04:17;;;;;;;1.17;0.82;;;;;;;22.52;50.32;100671.50;5019607;28;20120;-70
2023/06/12 05:06:46;;;;;;;1.17;0.90;;;;;;;22.44;50.37;100687.44;5018423;28;20045;-69
2023/06/12 05:09:16;;;;;;;1.23;0.90;;;;;;;22.37;51.43;100689.34;5024547;28;20494;-70
2023/06/12 05:11:45;;;;;;;3.20;1.25;;;;;;;22.28;51.65;100684.25;5003978;28;20060;-71
2023/06/12 05:14:13;;;;;;;6.05;1.83;;;;;;;22.20;51.24;100683.53;5021079;28;20054;-70
2023/06/12 05:16:42;;;;;;;2.50;1.10;;;;;;;22.12;51.26;100681.00;5021411;28;20048;-69
2023/06/12 05:19:10;;;;;;;1.65;0.88;;;;;;;22.03;51.64;100681.19;5022658;28;20046;-70
2023/06/12 05:21:41;;;;;;;1.40;1.30;;;;;;;21.92;52.91;100681.41;5025218;28;20083;-70
2023/06/12 05:24:10;;;;;;;1.70;1.13;;;;;;;21.82;54.03;100682.47;5016664;28;20049;-70
2023/06/12 05:26:40;;;;;;;2.03;1.10;;;;;;;21.75;54.68;100683.47;5021239;28;20050;-70
2023/06/12 05:29:09;;;;;;;2.08;1.88;;;;;;;21.71;53.20;100687.06;5025923;28;20077;-69
2023/06/12 05:31:37;;;;;;;1.80;1.30;;;;;;;21.69;53.35;100691.47;5027242;28;20053;-71
2023/06/12 05:34:06;;;;;;;3.22;1.20;;;;;;;21.67;53.58;100688.00;5022683;28;20045;-71
2023/06/12 05:36:35;;;;;;;1.60;1.20;;;;;;;21.64;52.63;100693.31;5024104;28;20049;-71
2023/06/12 05:39:04;;;;;;;1.27;1.05;;;;;;;21.56;52.52;100692.59;5023857;28;20054;-71
2023/06/12 05:41:33;;;;;;;1.33;1.00;;;;;;;21.49;52.86;100695.31;5023536;28;20048;-71
2023/06/12 05:44:03;;;;;;;3.80;1.00;;;;;;;21.45;52.90;100691.00;5023489;28;20507;-70
2023/06/12 05:46:32;;;;;;;1.85;1.05;;;;;;;21.41;52.72;100694.56;5021326;28;20053;-70
2023/06/12 05:49:03;;;;;;;1.58;1.30;;;;;;;21.38;52.71;100691.09;5022047;28;20049;-70
2023/06/12 05:51:31;;;;;;;1.42;1.25;;;;;;;21.33;53.15;100693.81;5025348;28;20100;-69
2023/06/12 05:54:00;;;;;;;2.13;1.05;;;;;;;21.25;53.21;100686.00;5021023;28;20566;-70
2023/06/12 05:56:29;;;;;;;1.73;0.93;;;;;;;21.18;53.64;100684.38;5020923;28;20567;-70
2023/06/12 05:58:57;;;;;;;1.50;1.02;;;;;;;21.11;54.37;100672.22;5019350;28;20061;-71
2023/06/12 06:01:31;;;;;;;2.42;1.52;;;;;;;21.02;55.48;100685.50;5021256;28;20072;-70
2023/06/12 06:04:00;;;;;;;1.90;1.50;;;;;;;20.89;55.85;100674.28;5026751;28;20057;-70
2023/06/12 06:06:30;;;;;;;2.00;1.60;;;;;;;20.84;56.55;100676.13;5021656;28;20526;-69
2023/06/12 06:08:59;;;;;;;1.27;1.10;;;;;;;20.77;55.44;100688.47;5022507;28;20588;-68
2023/06/12 06:11:28;;;;;;;1.60;1.45;;;;;;;20.70;57.50;100687.69;5024550;28;20375;-70
2023/06/12 06:13:58;;;;;;;2.28;1.55;;;;;;;20.64;57.28;100679.91;5021410;28;20041;-70
2023/06/12 06:16:28;;;;;;;2.85;1.60;;;;;;;20.60;57.07;100682.59;5021474;28;20049;-70
2023/06/12 06:18:56;;;;;;;2.40;1.83;;;;;;;20.55;56.92;100693.13;5021654;28;20042;-69
2023/06/12 06:21:25;;;;;;;2.38;1.75;;;;;;;20.50;57.19;100689.66;5019003;28;20046;-70
2023/06/12 06:23:54;;;;;;;3.63;1.73;;;;;;;20.48;57.70;100696.72;5018121;28;20081;-70
2023/06/12 06:26:23;;;;;;;1.92;1.55;;;;;;;20.42;59.15;100704.69;4999570;28;20953;-69
2023/06/12 06:28:51;;;;;;;3.80;1.50;;;;;;;20.36;59.95;100707.38;4995416;28;20054;-70
2023/06/12 06:31:20;;;;;;;2.35;1.65;;;;;;;20.29;61.10;100702.19;5001576;28;20118;-70
2023/06/12 06:33:50;;;;;;;2.35;1.70;;;;;;;20.23;59.85;100702.25;5003266;28;20129;-70
2023/06/12 06:36:19;;;;;;;2.35;1.60;;;;;;;20.23;59.63;100698.78;4992771;28;20043;-70
2023/06/12 06:38:47;;;;;;;2.22;1.63;;;;;;;20.19;61.32;100711.06;4993690;28;20054;-70
2023/06/12 06:41:16;;;;;;;2.75;1.80;;;;;;;20.16;60.51;100703.22;4996310;28;20081;-70
2023/06/12 06:43:45;;;;;;;1.10;1.00;;;;;;;20.12;59.49;100700.63;5007834;28;20696;-68
2023/06/12 06:46:14;;;;;;;1.58;1.00;;;;;;;20.10;59.52;100711.16;5009210;28;20511;-69
2023/06/12 06:48:42;;;;;;;1.33;1.10;;;;;;;20.07;60.96;100716.44;5003773;28;20600;-70
2023/06/12 06:51:13;;;;;;;2.85;1.20;;;;;;;20.00;60.74;100714.78;5000845;28;20676;-70
2023/06/12 06:53:41;;;;;;;2.63;1.25;;;;;;;19.94;62.99;100718.31;4999814;28;20747;-70
2023/06/12 06:56:10;;;;;;;2.72;1.42;;;;;;;19.86;61.33;100713.16;5001066;28;20581;-70
2023/06/12 06:58:40;;;;;;;1.65;1.17;;;;;;;19.84;63.61;100714.06;5000775;28;20635;-70
2023/06/12 07:01:08;;;;;;;2.13;1.10;;;;;;;19.81;62.55;100719.31;5000872;28;20045;-70
2023/06/12 07:03:37;;;;;;;1.63;1.10;;;;;;;19.77;61.69;100718.47;4996727;28;20069;-70
2023/06/12 07:06:07;;;;;;;3.40;1.23;;;;;;;19.78;61.46;100711.47;4992725;28;20047;-70
2023/06/12 07:08:37;;;;;;;1.42;1.10;;;;;;;19.79;62.71;100716.72;4999090;28;20476;-70
2023/06/12 07:11:08;;;;;;;1.35;1.13;;;;;;;19.78;62.96;100700.97;4997959;28;20046;-69
2023/06/12 07:13:37;;;;;;;1.85;1.42;;;;;;;19.74;63.02;100708.00;4999017;28;20046;-69
2023/06/12 07:16:06;;;;;;;4.00;1.00;;;;;;;19.72;62.87;100703.63;4989848;28;20049;-70
2023/06/12 07:18:34;;;;;;;2.17;1.00;;;;;;;19.71;62.85;100702.78;4997054;28;20072;-69
2023/06/12 07:21:03;;;;;;;1.70;1.38;;;;;;;19.69;62.53;100703.69;5003991;28;20046;-70
2023/06/12 07:23:31;;;;;;;2.70;1.10;;;;;;;19.61;63.91;100695.84;4993205;28;20503;-70
2023/06/12 07:26:02;;;;;;;1.75;1.17;;;;;;;19.64;62.69;100703.69;5016456;28;20053;-69
2023/06/12 07:28:30;;;;;;;1.90;1.20;;;;;;;19.63;62.82;100712.44;5022558;28;20093;-69
2023/06/12 07:30:59;;;;;;;1.63;1.20;;;;;;;19.63;63.55;100710.69;5021070;28;20051;-69
2023/06/12 07:33:27;;;;;;;2.15;1.20;;;;;;;19.60;63.01;100710.69;5021232;28;20058;-69
2023/06/12 07:35:56;;;;;;;3.85;1.00;;;;;;;19.55;65.64;100712.50;5020514;28;20045;-69
2023/06/12 07:38:24;;;;;;;1.70;1.17;;;;;;;19.50;65.39;100708.19;5019843;28;20056;-70
2023/06/12 07:40:53;;;;;;;2.25;1.58;;;;;;;19.47;64.54;100698.59;5024940;28;20038;-70
2023/06/12 07:43:23;;;;;;;1.25;1.05;;;;;;;19.49;63.46;100711.69;5022158;28;20045;-70
2023/06/12 07:45:54;;;;;;;2.97;1.52;;;;;;;19.45;63.55;100706.47;5018757;28;20569;-70
2023/06/12 07:48:22;;;;;;;2.20;1.50;;;;;;;19.39;63.70;100709.13;5024463;28;20084;-69
2023/06/12 07:50:51;;;;;;;1.58;1.10;;;;;;;19.38;63.45;100709.16;5020299;28;20068;-69
2023/06/12 07:53:20;;;;;;;1.25;1.10;;;;;;;19.37;63.76;100708.25;5017734;28;20042;-69
2023/06/12 07:55:49;;;;;;;1.85;1.25;;;;;;;19.33;63.67;100706.53;5022582;28;20058;-69
2023/06/12 07:58:17;;;;;;;2.08;1.33;;;;;;;19.32;63.94;100709.19;5015811;28;20582;-69
2023/06/12 08:00:49;;;;;;;3.45;1.13;;;;;;;19.28;63.97;100718.81;5018028;28;20751;-70
2023/06/12 08:03:17;;;;;;;2.75;1.33;;;;;;;19.24;64.17;100717.09;5021405;28;20075;-70
2023/06/12 08:05:46;;;;;;;1.70;1.15;;;;;;;19.23;64.45;100723.25;5021773;28;20054;-70
2023/06/12 08:08:14;;;;;;;2.17;1.30;;;;;;;19.24;65.05;100727.59;5021050;28;20099;-69
2023/06/12 08:10:43;;;;;;;2.28;1.45;;;;;;;19.21;65.19;100728.47;5021793;28;20050;-69
2023/06/12 08:13:11;;;;;;;1.77;1.08;;;;;;;19.19;66.04;100725.00;5018798;28;20514;-69
2023/06/12 08:15:40;;;;;;;4.03;1.27;;;;;;;19.18;65.65;100732.91;5023745;28;20076;-69
2023/06/12 08:18:10;;;;;;;1.85;1.00;;;;;;;19.12;65.54;100733.78;5015458;28;20099;-70
2023/06/12 08:20:39;;;;;;;2.13;1.20;;;;;;;19.09;65.69;100746.06;5022205;28;20285;-70
2023/06/12 08:23:07;;;;;;;2.55;1.40;;;;;;;19.05;65.42;100746.06;5019871;28;20050;-70
2023/06/12 08:25:36;;;;;;;1.35;1.10;;;;;;;19.00;65.18;100744.34;5021452;28;20076;-69
2023/06/12 08:28:05;;;;;;;2.63;1.13;;;;;;;18.93;66.48;100748.75;5017963;28;20046;-68
2023/06/12 08:30:33;;;;;;;3.03;1.17;;;;;;;18.87;67.49;100748.78;5021566;28;20057;-69
2023/06/12 08:33:03;;;;;;;2.33;1.48;;;;;;;18.81;67.71;100754.94;5019213;28;20100;-69
2023/06/12 08:35:34;;;;;;;2.13;1.40;;;;;;;18.78;68.67;100764.56;5021296;28;20058;-69
2023/06/12 08:38:03;;;;;;;2.67;1.30;;;;;;;18.71;68.79;100768.03;5023845;28;20065;-69
2023/06/12 08:40:32;;;;;;;2.25;1.30;;;;;;;18.68;68.78;100768.06;5020480;28;20291;-69
2023/06/12 08:43:01;;;;;;;2.38;1.75;;;;;;;18.65;69.21;100768.97;5023892;28;20103;-69
2023/06/12 08:45:31;;;;;;;2.15;1.13;;;;;;;18.59;69.44;100775.06;5022104;28;20053;-70
2023/06/12 08:48:02;;;;;;;2.42;1.23;;;;;;;18.54;69.40;100771.59;5024005;28;20052;-69
2023/06/12 08:50:35;;;;;;;2.67;1.60;;;;;;;18.53;69.83;100769.88;5022884;28;20058;-69
2023/06/12 08:53:04;;;;;;;;;;;;;;;18.47;70.69;100766.41;5025196;28;20107;-69
2023/06/12 08:55:39;;;;;;;1.80;1.35;;;;;;;18.37;71.17;100752.41;5022753;28;20297;-69
2023/06/12 08:58:08;;;;;;;1.80;1.40;;;;;;;18.36;72.12;100762.03;5020181;28;20161;-70
2023/06/12 09:00:37;;;;;;;2.03;1.58;;;;;;;18.30;72.10;100758.56;5023022;28;20077;-70
2023/06/12 09:03:06;;;;;;;4.45;1.50;;;;;;;18.24;71.75;100761.22;5022032;28;20053;-70
2023/06/12 09:05:51;;;;;;;2.08;1.33;;;;;;;18.19;72.10;100769.94;5022754;28;20124;-70
2023/06/12 09:08:19;;;;;;;1.70;1.20;;;;;;;18.16;72.35;100764.72;5019346;28;20061;-70
2023/06/12 09:10:49;;;;;;;2.05;1.20;;;;;;;18.10;71.78;100769.97;5024015;28;20053;-70
2023/06/12 09:13:17;;;;;;;3.00;1.15;;;;;;;18.08;72.36;100771.69;5024869;28;20081;-70
2023/06/12 09:15:53;;;;;;;2.78;0.90;;;;;;;18.06;72.21;100769.97;5023219;28;20054;-70
2023/06/12 09:18:22;;;;;;;2.58;1.60;;;;;;;18.01;71.72;100769.97;5025503;28;20049;-70
2023/06/12 09:20:53;;;;;;;1.58;1.27;;;;;;;17.97;72.49;100770.84;5019626;28;20049;-70
2023/06/12 09:23:21;;;;;;;2.05;1.38;;;;;;;17.91;72.92;100773.44;5025236;28;20056;-70
2023/06/12 09:25:54;;;;;;;1.50;1.20;;;;;;;17.85;73.03;100768.22;5010963;28;20062;-71
2023/06/12 09:28:23;;;;;;;;;;;;;;;17.86;73.07;100775.19;5006248;28;20050;-70
2023/06/12 09:30:52;;;;;;;2.15;1.15;;;;;;;17.82;72.91;100773.44;5002428;28;19928;-70
2023/06/12 09:33:29;;;;;;;1.70;1.45;;;;;;;17.78;74.14;100783.88;4998840;28;20061;-70
2023/06/12 09:36:00;;;;;;;2.65;1.40;;;;;;;17.73;73.96;100782.13;5000608;28;20046;-70
2023/06/12 09:38:32;;;;;;;1.45;0.90;;;;;;;17.70;74.43;100783.00;5001469;28;20050;-70
2023/06/12 09:41:03;;;;;;;4.30;1.73;;;;;;;17.70;74.45;100780.38;5006314;28;20050;-70
2023/06/12 09:43:31;;;;;;;4.72;1.48;;;;;;;17.68;74.93;100778.66;5006865;28;20053;-69
2023/06/12 09:46:02;;;;;;;3.88;1.40;;;;;;;17.68;75.16;100791.72;5004961;28;20046;-70
2023/06/12 09:48:35;;;;;;;3.72;1.58;;;;;;;17.66;75.64;100791.75;5002800;28;20045;-70
2023/06/12 09:51:07;;;;;;;;;;;;;;;17.63;74.60;100791.72;5004925;28;20602;-70
2023/06/12 09:53:38;;;;;;;2.22;1.20;;;;;;;17.62;75.03;100799.59;4999066;28;19980;-70
2023/06/12 09:56:08;;;;;;;1.85;1.55;;;;;;;17.62;74.67;100804.81;4997446;28;20121;-72
2023/06/12 09:58:38;;;;;;;2.75;1.65;;;;;;;17.61;74.37;100801.31;5005313;28;20046;-71
2023/06/12 10:01:08;;;;;;;2.60;1.20;;;;;;;17.64;74.69;100803.06;5002749;28;20049;-71
2023/06/12 10:03:39;;;;;;;2.05;1.30;;;;;;;17.64;74.64;100800.44;5001694;28;20058;-71
2023/06/12 10:06:13;;;;;;;3.17;1.27;;;;;;;17.65;74.21;100799.59;5007225;28;20053;-71
2023/06/12 10:08:43;;;;;;;2.03;1.10;;;;;;;17.63;74.18;100799.56;4992260;28;20056;-70
2023/06/12 10:11:12;;;;;;;2.25;1.27;;;;;;;17.62;74.74;100796.97;5002148;28;20049;-70
2023/06/12 10:13:41;;;;;;;3.25;1.17;;;;;;;17.58;74.50;100791.72;5002386;28;20054;-71
2023/06/12 10:16:11;;;;;;;2.30;1.20;;;;;;;17.56;75.45;100795.19;5001955;28;20046;-70
2023/06/12 10:18:40;;;;;;;1.75;1.25;;;;;;;17.55;75.50;100806.56;5003902;28;20058;-70
2023/06/12 10:21:13;;;;;;;2.72;1.40;;;;;;;17.50;75.27;100800.41;5005764;28;20048;-70
2023/06/12 10:23:42;;;;;;;3.10;1.27;;;;;;;17.47;75.59;100793.44;5002683;28;20593;-71
2023/06/12 10:26:11;;;;;;;2.20;1.25;;;;;;;17.47;75.50;100795.19;5021608;28;20203;-71
2023/06/12 10:28:40;;;;;;;2.50;1.35;;;;;;;17.47;75.98;100797.81;5023287;28;20045;-71
2023/06/12 10:31:12;;;;;;;3.35;1.25;;;;;;;17.43;76.17;100796.03;5022434;28;20064;-70
2023/06/12 10:33:58;;;;;;;2.25;1.33;;;;;;;17.40;78.94;100796.91;5018052;28;20041;-70
2023/06/12 10:36:39;;;;;;;2.13;1.35;;;;;;;17.35;80.06;100794.28;5020011;28;20042;-69
2023/06/12 10:39:17;;;;;;;2.78;1.48;;;;;;;17.28;79.82;100802.13;5018506;28;20943;-70
2023/06/12 10:41:56;;;;;;;1.85;1.23;;;;;;;17.20;79.84;100807.31;5019162;28;20080;-70
2023/06/12 10:44:41;;;;;;;2.45;1.40;;;;;;;17.15;80.49;100811.66;5019357;28;20049;-70
2023/06/12 10:47:20;;;;;;;4.75;1.73;;;;;;;17.11;79.36;100805.56;5015437;28;20058;-70
2023/06/12 10:50:08;;;;;;;2.22;0.98;;;;;;;17.08;79.83;100799.44;5021059;28;20084;-69
2023/06/12 10:52:53;;;;;;;1.52;1.05;;;;;;;17.05;80.49;100802.06;5020446;28;20461;-69
2023/06/12 10:55:23;;;;;;;4.47;1.40;;;;;;;16.94;81.38;100797.66;5018138;28;20054;-69
2023/06/12 10:57:57;;;;;;;2.28;1.30;;;;;;;16.86;81.19;100795.88;5021897;28;20054;-69
2023/06/12 11:00:29;;;;;;;2.33;1.42;;;;;;;16.80;81.50;100801.94;5020120;28;20057;-69
2023/06/12 11:03:00;;;;;;;3.47;1.50;;;;;;;16.75;81.21;100812.34;5020284;28;20053;-69
2023/06/12 11:05:30;;;;;;;4.07;1.83;;;;;;;16.72;81.38;100807.13;5021905;28;20049;-69
2023/06/12 11:08:01;;;;;;;1.60;1.33;;;;;;;16.68;82.07;100815.78;5023888;28;20049;-69
2023/06/12 11:10:30;;;;;;;2.05;1.33;;;;;;;16.67;81.24;100805.31;5017461;28;20053;-70
2023/06/12 11:12:59;;;;;;;4.18;1.73;;;;;;;16.62;81.70;100807.06;5019021;28;20311;-70
2023/06/12 11:15:28;;;;;;;3.63;1.33;;;;;;;16.59;81.63;100807.03;5019934;28;20048;-71
2023/06/12 11:17:57;;;;;;;2.22;1.30;;;;;;;16.58;80.79;100805.28;5017877;28;20798;-70
2023/06/12 11:20:26;;;;;;;2.70;1.85;;;;;;;16.55;80.29;100804.38;5022395;28;20738;-69
2023/06/12 11:23:03;;;;;;;3.88;1.60;;;;;;;16.47;80.89;100808.72;5020380;28;20046;-69
2023/06/12 11:25:35;;;;;;;2.90;1.50;;;;;;;16.44;80.16;100810.41;5024784;28;20053;-70
2023/06/12 11:28:07;;;;;;;2.20;1.25;;;;;;;16.37;81.17;100806.88;5016806;28;20046;-70
2023/06/12 11:30:48;;;;;;;2.35;1.52;;;;;;;16.33;81.85;100803.41;5020001;28;20663;-69
2023/06/12 11:33:17;;;;;;;1.92;1.20;;;;;;;16.33;81.76;100812.94;5017998;28;20110;-70
2023/06/12 11:35:47;;;;;;;2.10;1.27;;;;;;;16.30;83.51;100807.72;5018604;28;20133;-70
2023/06/12 11:38:18;;;;;;;3.58;1.58;;;;;;;16.28;83.61;100814.66;5018276;28;20057;-71
2023/06/12 11:40:48;;;;;;;3.95;1.58;;;;;;;16.19;86.10;100814.59;5017264;28;20054;-70